<?xml version="1.0" encoding="UTF-8" standalone="no" ?>
<gpx xmlns="http://www.topografix.com/GPX/1/1" xmlns:xsi="http://www.w3.org/2001/XMLSchema-instance" xsi:schemaLocation="http://www.topografix.com/GPX/1/1 http://www.topografix.com/GPX/1/1/gpx.xsd" version="1.1" creator="VisuGPX - https://www.visugpx.com">
  <metadata>
    <name>Pas-Brochier-45-1250</name>
    <desc><![CDATA[Parcours VTT au départ d'Autrans : Pas Brochier - 45 km - D  : 1250 m]]></desc>
  </metadata>
  <trk>
    <name><![CDATA[Pas-Brochier]]></name>
    <extensions>
      <line xmlns="http://www.topografix.com/GPX/gpx_style/0/2">
        <color>ff0000</color>
        <opacity>1.0</opacity>
        <width>2.0</width>
      </line>
    </extensions>
    <trkseg>
      <trkpt lat="45.18341" lon="5.56249">
        <ele>1074</ele>
        <time>2013-10-01T19:34:46Z</time>
      </trkpt>
      <trkpt lat="45.1837" lon="5.56168">
        <ele>1071</ele>
        <time>2013-10-01T19:35:03Z</time>
      </trkpt>
      <trkpt lat="45.18346" lon="5.56074">
        <ele>1070</ele>
        <time>2013-10-01T19:35:22Z</time>
      </trkpt>
      <trkpt lat="45.18375" lon="5.55996">
        <ele>1068</ele>
        <time>2013-10-01T19:35:39Z</time>
      </trkpt>
      <trkpt lat="45.1849" lon="5.5585">
        <ele>1085</ele>
        <time>2013-10-01T19:36:20Z</time>
      </trkpt>
      <trkpt lat="45.18605" lon="5.55685">
        <ele>1112</ele>
        <time>2013-10-01T19:37:03Z</time>
      </trkpt>
      <trkpt lat="45.18587" lon="5.55551">
        <ele>1124</ele>
        <time>2013-10-01T19:37:29Z</time>
      </trkpt>
      <trkpt lat="45.18593" lon="5.55497">
        <ele>1131</ele>
        <time>2013-10-01T19:37:39Z</time>
      </trkpt>
      <trkpt lat="45.18632" lon="5.55506">
        <ele>1140</ele>
        <time>2013-10-01T19:37:50Z</time>
      </trkpt>
      <trkpt lat="45.18778" lon="5.55609">
        <ele>1158</ele>
        <time>2013-10-01T19:38:33Z</time>
      </trkpt>
      <trkpt lat="45.18862" lon="5.55751">
        <ele>1163</ele>
        <time>2013-10-01T19:39:08Z</time>
      </trkpt>
      <trkpt lat="45.18925" lon="5.55835">
        <ele>1166</ele>
        <time>2013-10-01T19:39:31Z</time>
      </trkpt>
      <trkpt lat="45.18986" lon="5.55938">
        <ele>1179</ele>
        <time>2013-10-01T19:39:57Z</time>
      </trkpt>
      <trkpt lat="45.19169" lon="5.56051">
        <ele>1202</ele>
        <time>2013-10-01T19:40:50Z</time>
      </trkpt>
      <trkpt lat="45.19275" lon="5.56122">
        <ele>1210</ele>
        <time>2013-10-01T19:41:21Z</time>
      </trkpt>
      <trkpt lat="45.19393" lon="5.56222">
        <ele>1217</ele>
        <time>2013-10-01T19:41:58Z</time>
      </trkpt>
      <trkpt lat="45.19476" lon="5.56217">
        <ele>1227</ele>
        <time>2013-10-01T19:42:20Z</time>
      </trkpt>
      <trkpt lat="45.19583" lon="5.56263">
        <ele>1241</ele>
        <time>2013-10-01T19:42:50Z</time>
      </trkpt>
      <trkpt lat="45.19648" lon="5.56277">
        <ele>1251</ele>
        <time>2013-10-01T19:43:07Z</time>
      </trkpt>
      <trkpt lat="45.19689" lon="5.56292">
        <ele>1255</ele>
        <time>2013-10-01T19:43:18Z</time>
      </trkpt>
      <trkpt lat="45.19744" lon="5.56342">
        <ele>1254</ele>
        <time>2013-10-01T19:43:36Z</time>
      </trkpt>
      <trkpt lat="45.19803" lon="5.56369">
        <ele>1258</ele>
        <time>2013-10-01T19:43:52Z</time>
      </trkpt>
      <trkpt lat="45.19843" lon="5.5633">
        <ele>1263</ele>
        <time>2013-10-01T19:44:05Z</time>
      </trkpt>
      <trkpt lat="45.19886" lon="5.56355">
        <ele>1262</ele>
        <time>2013-10-01T19:44:18Z</time>
      </trkpt>
      <trkpt lat="45.19915" lon="5.56394">
        <ele>1262</ele>
        <time>2013-10-01T19:44:28Z</time>
      </trkpt>
      <trkpt lat="45.2003" lon="5.56374">
        <ele>1265</ele>
        <time>2013-10-01T19:44:59Z</time>
      </trkpt>
      <trkpt lat="45.20063" lon="5.56311">
        <ele>1270</ele>
        <time>2013-10-01T19:45:14Z</time>
      </trkpt>
      <trkpt lat="45.20072" lon="5.56238">
        <ele>1275</ele>
        <time>2013-10-01T19:45:28Z</time>
      </trkpt>
      <trkpt lat="45.20093" lon="5.56209">
        <ele>1279</ele>
        <time>2013-10-01T19:45:36Z</time>
      </trkpt>
      <trkpt lat="45.2012" lon="5.56219">
        <ele>1280</ele>
        <time>2013-10-01T19:45:43Z</time>
      </trkpt>
      <trkpt lat="45.20152" lon="5.56255">
        <ele>1280</ele>
        <time>2013-10-01T19:45:54Z</time>
      </trkpt>
      <trkpt lat="45.202" lon="5.56252">
        <ele>1284</ele>
        <time>2013-10-01T19:46:07Z</time>
      </trkpt>
      <trkpt lat="45.20231" lon="5.5626">
        <ele>1287</ele>
        <time>2013-10-01T19:46:15Z</time>
      </trkpt>
      <trkpt lat="45.20302" lon="5.5621">
        <ele>1291</ele>
        <time>2013-10-01T19:46:36Z</time>
      </trkpt>
      <trkpt lat="45.2036" lon="5.56244">
        <ele>1298</ele>
        <time>2013-10-01T19:46:53Z</time>
      </trkpt>
      <trkpt lat="45.20359" lon="5.56322">
        <ele>1300</ele>
        <time>2013-10-01T19:47:08Z</time>
      </trkpt>
      <trkpt lat="45.20463" lon="5.56419">
        <ele>1298</ele>
        <time>2013-10-01T19:47:41Z</time>
      </trkpt>
      <trkpt lat="45.20505" lon="5.56465">
        <ele>1296</ele>
        <time>2013-10-01T19:47:55Z</time>
      </trkpt>
      <trkpt lat="45.20559" lon="5.56586">
        <ele>1290</ele>
        <time>2013-10-01T19:48:22Z</time>
      </trkpt>
      <trkpt lat="45.20617" lon="5.56595">
        <ele>1293</ele>
        <time>2013-10-01T19:48:37Z</time>
      </trkpt>
      <trkpt lat="45.20711" lon="5.56564">
        <ele>1289</ele>
        <time>2013-10-01T19:49:03Z</time>
      </trkpt>
      <trkpt lat="45.20832" lon="5.5657">
        <ele>1285</ele>
        <time>2013-10-01T19:49:35Z</time>
      </trkpt>
      <trkpt lat="45.20917" lon="5.56606">
        <ele>1291</ele>
        <time>2013-10-01T19:49:59Z</time>
      </trkpt>
      <trkpt lat="45.20958" lon="5.56639">
        <ele>1290</ele>
        <time>2013-10-01T19:50:12Z</time>
      </trkpt>
      <trkpt lat="45.21018" lon="5.56593">
        <ele>1296</ele>
        <time>2013-10-01T19:50:30Z</time>
      </trkpt>
      <trkpt lat="45.21045" lon="5.56519">
        <ele>1300</ele>
        <time>2013-10-01T19:50:45Z</time>
      </trkpt>
      <trkpt lat="45.21098" lon="5.56488">
        <ele>1299</ele>
        <time>2013-10-01T19:51:01Z</time>
      </trkpt>
      <trkpt lat="45.21157" lon="5.56473">
        <ele>1297</ele>
        <time>2013-10-01T19:51:17Z</time>
      </trkpt>
      <trkpt lat="45.21189" lon="5.56465">
        <ele>1296</ele>
        <time>2013-10-01T19:51:25Z</time>
      </trkpt>
      <trkpt lat="45.21235" lon="5.56497">
        <ele>1299</ele>
        <time>2013-10-01T19:51:39Z</time>
      </trkpt>
      <trkpt lat="45.21283" lon="5.56551">
        <ele>1303</ele>
        <time>2013-10-01T19:51:55Z</time>
      </trkpt>
      <trkpt lat="45.21353" lon="5.56661">
        <ele>1316</ele>
        <time>2013-10-01T19:52:23Z</time>
      </trkpt>
      <trkpt lat="45.21417" lon="5.56641">
        <ele>1318</ele>
        <time>2013-10-01T19:52:41Z</time>
      </trkpt>
      <trkpt lat="45.21476" lon="5.56638">
        <ele>1320</ele>
        <time>2013-10-01T19:52:57Z</time>
      </trkpt>
      <trkpt lat="45.21552" lon="5.56641">
        <ele>1320</ele>
        <time>2013-10-01T19:53:17Z</time>
      </trkpt>
      <trkpt lat="45.21594" lon="5.56577">
        <ele>1325</ele>
        <time>2013-10-01T19:53:33Z</time>
      </trkpt>
      <trkpt lat="45.21658" lon="5.56598">
        <ele>1328</ele>
        <time>2013-10-01T19:53:51Z</time>
      </trkpt>
      <trkpt lat="45.21689" lon="5.56554">
        <ele>1326</ele>
        <time>2013-10-01T19:54:02Z</time>
      </trkpt>
      <trkpt lat="45.21759" lon="5.56542">
        <ele>1324</ele>
        <time>2013-10-01T19:54:21Z</time>
      </trkpt>
      <trkpt lat="45.21766" lon="5.56653">
        <ele>1332</ele>
        <time>2013-10-01T19:54:42Z</time>
      </trkpt>
      <trkpt lat="45.21813" lon="5.567">
        <ele>1333</ele>
        <time>2013-10-01T19:54:58Z</time>
      </trkpt>
      <trkpt lat="45.21842" lon="5.56742">
        <ele>1333</ele>
        <time>2013-10-01T19:55:09Z</time>
      </trkpt>
      <trkpt lat="45.21852" lon="5.5681">
        <ele>1330</ele>
        <time>2013-10-01T19:55:22Z</time>
      </trkpt>
      <trkpt lat="45.21892" lon="5.56818">
        <ele>1329</ele>
        <time>2013-10-01T19:55:32Z</time>
      </trkpt>
      <trkpt lat="45.21954" lon="5.56863">
        <ele>1330</ele>
        <time>2013-10-01T19:55:51Z</time>
      </trkpt>
      <trkpt lat="45.21996" lon="5.56863">
        <ele>1331</ele>
        <time>2013-10-01T19:56:02Z</time>
      </trkpt>
      <trkpt lat="45.22033" lon="5.5675">
        <ele>1321</ele>
        <time>2013-10-01T19:56:26Z</time>
      </trkpt>
      <trkpt lat="45.22091" lon="5.5664">
        <ele>1318</ele>
        <time>2013-10-01T19:56:51Z</time>
      </trkpt>
      <trkpt lat="45.22115" lon="5.56724">
        <ele>1319</ele>
        <time>2013-10-01T19:57:08Z</time>
      </trkpt>
      <trkpt lat="45.2214" lon="5.56832">
        <ele>1324</ele>
        <time>2013-10-01T19:57:30Z</time>
      </trkpt>
      <trkpt lat="45.22189" lon="5.56824">
        <ele>1326</ele>
        <time>2013-10-01T19:57:43Z</time>
      </trkpt>
      <trkpt lat="45.22232" lon="5.56802">
        <ele>1330</ele>
        <time>2013-10-01T19:57:55Z</time>
      </trkpt>
      <trkpt lat="45.22282" lon="5.56769">
        <ele>1333</ele>
        <time>2013-10-01T19:58:10Z</time>
      </trkpt>
      <trkpt lat="45.22319" lon="5.56779">
        <ele>1336</ele>
        <time>2013-10-01T19:58:20Z</time>
      </trkpt>
      <trkpt lat="45.22343" lon="5.56848">
        <ele>1342</ele>
        <time>2013-10-01T19:58:34Z</time>
      </trkpt>
      <trkpt lat="45.22376" lon="5.56961">
        <ele>1353</ele>
        <time>2013-10-01T19:58:57Z</time>
      </trkpt>
      <trkpt lat="45.22407" lon="5.56979">
        <ele>1357</ele>
        <time>2013-10-01T19:59:06Z</time>
      </trkpt>
      <trkpt lat="45.22433" lon="5.56945">
        <ele>1356</ele>
        <time>2013-10-01T19:59:16Z</time>
      </trkpt>
      <trkpt lat="45.22422" lon="5.5684">
        <ele>1349</ele>
        <time>2013-10-01T19:59:36Z</time>
      </trkpt>
      <trkpt lat="45.22399" lon="5.56746">
        <ele>1343</ele>
        <time>2013-10-01T19:59:54Z</time>
      </trkpt>
      <trkpt lat="45.22393" lon="5.56674">
        <ele>1341</ele>
        <time>2013-10-01T20:00:08Z</time>
      </trkpt>
      <trkpt lat="45.22359" lon="5.56598">
        <ele>1334</ele>
        <time>2013-10-01T20:00:25Z</time>
      </trkpt>
      <trkpt lat="45.22359" lon="5.56381">
        <ele>1327</ele>
        <time>2013-10-01T20:01:06Z</time>
      </trkpt>
      <trkpt lat="45.22423" lon="5.5627">
        <ele>1334</ele>
        <time>2013-10-01T20:01:33Z</time>
      </trkpt>
      <trkpt lat="45.2246" lon="5.5618">
        <ele>1340</ele>
        <time>2013-10-01T20:01:52Z</time>
      </trkpt>
      <trkpt lat="45.22456" lon="5.56065">
        <ele>1337</ele>
        <time>2013-10-01T20:02:14Z</time>
      </trkpt>
      <trkpt lat="45.2247" lon="5.55952">
        <ele>1334</ele>
        <time>2013-10-01T20:02:35Z</time>
      </trkpt>
      <trkpt lat="45.22465" lon="5.55908">
        <ele>1333</ele>
        <time>2013-10-01T20:02:44Z</time>
      </trkpt>
      <trkpt lat="45.22503" lon="5.55896">
        <ele>1336</ele>
        <time>2013-10-01T20:02:54Z</time>
      </trkpt>
      <trkpt lat="45.2253" lon="5.55804">
        <ele>1336</ele>
        <time>2013-10-01T20:03:13Z</time>
      </trkpt>
      <trkpt lat="45.22583" lon="5.55759">
        <ele>1337</ele>
        <time>2013-10-01T20:03:29Z</time>
      </trkpt>
      <trkpt lat="45.22644" lon="5.55797">
        <ele>1338</ele>
        <time>2013-10-01T20:03:47Z</time>
      </trkpt>
      <trkpt lat="45.22704" lon="5.55819">
        <ele>1338</ele>
        <time>2013-10-01T20:04:03Z</time>
      </trkpt>
      <trkpt lat="45.22756" lon="5.5587">
        <ele>1345</ele>
        <time>2013-10-01T20:04:20Z</time>
      </trkpt>
      <trkpt lat="45.22792" lon="5.5593">
        <ele>1356</ele>
        <time>2013-10-01T20:04:35Z</time>
      </trkpt>
      <trkpt lat="45.22849" lon="5.56006">
        <ele>1359</ele>
        <time>2013-10-01T20:04:56Z</time>
      </trkpt>
      <trkpt lat="45.22894" lon="5.55917">
        <ele>1362</ele>
        <time>2013-10-01T20:05:17Z</time>
      </trkpt>
      <trkpt lat="45.2296" lon="5.55862">
        <ele>1369</ele>
        <time>2013-10-01T20:05:37Z</time>
      </trkpt>
      <trkpt lat="45.23002" lon="5.55803">
        <ele>1371</ele>
        <time>2013-10-01T20:05:53Z</time>
      </trkpt>
      <trkpt lat="45.23062" lon="5.55781">
        <ele>1378</ele>
        <time>2013-10-01T20:06:09Z</time>
      </trkpt>
      <trkpt lat="45.23126" lon="5.55734">
        <ele>1382</ele>
        <time>2013-10-01T20:06:29Z</time>
      </trkpt>
      <trkpt lat="45.23195" lon="5.55704">
        <ele>1389</ele>
        <time>2013-10-01T20:06:48Z</time>
      </trkpt>
      <trkpt lat="45.23289" lon="5.55772">
        <ele>1405</ele>
        <time>2013-10-01T20:07:16Z</time>
      </trkpt>
      <trkpt lat="45.23394" lon="5.55752">
        <ele>1418</ele>
        <time>2013-10-01T20:07:44Z</time>
      </trkpt>
      <trkpt lat="45.23399" lon="5.55705">
        <ele>1415</ele>
        <time>2013-10-01T20:07:53Z</time>
      </trkpt>
      <trkpt lat="45.23405" lon="5.55649">
        <ele>1412</ele>
        <time>2013-10-01T20:08:04Z</time>
      </trkpt>
      <trkpt lat="45.23407" lon="5.55613">
        <ele>1412</ele>
        <time>2013-10-01T20:08:11Z</time>
      </trkpt>
      <trkpt lat="45.23409" lon="5.55585">
        <ele>1413</ele>
        <time>2013-10-01T20:08:16Z</time>
      </trkpt>
      <trkpt lat="45.23444" lon="5.5554">
        <ele>1420</ele>
        <time>2013-10-01T20:08:29Z</time>
      </trkpt>
      <trkpt lat="45.23474" lon="5.55489">
        <ele>1423</ele>
        <time>2013-10-01T20:08:41Z</time>
      </trkpt>
      <trkpt lat="45.23493" lon="5.55443">
        <ele>1425</ele>
        <time>2013-10-01T20:08:51Z</time>
      </trkpt>
      <trkpt lat="45.2351" lon="5.55408">
        <ele>1427</ele>
        <time>2013-10-01T20:08:59Z</time>
      </trkpt>
      <trkpt lat="45.23512" lon="5.55361">
        <ele>1428</ele>
        <time>2013-10-01T20:09:08Z</time>
      </trkpt>
      <trkpt lat="45.23538" lon="5.55331">
        <ele>1432</ele>
        <time>2013-10-01T20:09:17Z</time>
      </trkpt>
      <trkpt lat="45.23561" lon="5.553">
        <ele>1435</ele>
        <time>2013-10-01T20:09:25Z</time>
      </trkpt>
      <trkpt lat="45.23607" lon="5.55278">
        <ele>1444</ele>
        <time>2013-10-01T20:09:38Z</time>
      </trkpt>
      <trkpt lat="45.23619" lon="5.5525">
        <ele>1450</ele>
        <time>2013-10-01T20:09:44Z</time>
      </trkpt>
      <trkpt lat="45.23651" lon="5.55229">
        <ele>1455</ele>
        <time>2013-10-01T20:09:54Z</time>
      </trkpt>
      <trkpt lat="45.237" lon="5.55248">
        <ele>1446</ele>
        <time>2013-10-01T20:10:07Z</time>
      </trkpt>
      <trkpt lat="45.23712" lon="5.55296">
        <ele>1441</ele>
        <time>2013-10-01T20:10:17Z</time>
      </trkpt>
      <trkpt lat="45.23718" lon="5.55332">
        <ele>1444</ele>
        <time>2013-10-01T20:10:24Z</time>
      </trkpt>
      <trkpt lat="45.23742" lon="5.55361">
        <ele>1449</ele>
        <time>2013-10-01T20:10:32Z</time>
      </trkpt>
      <trkpt lat="45.23767" lon="5.55375">
        <ele>1434</ele>
        <time>2013-10-01T20:10:39Z</time>
      </trkpt>
      <trkpt lat="45.23768" lon="5.55419">
        <ele>1456</ele>
        <time>2013-10-01T20:10:48Z</time>
      </trkpt>
      <trkpt lat="45.23806" lon="5.55459">
        <ele>1444</ele>
        <time>2013-10-01T20:11:00Z</time>
      </trkpt>
      <trkpt lat="45.23806" lon="5.55517">
        <ele>1455</ele>
        <time>2013-10-01T20:11:11Z</time>
      </trkpt>
      <trkpt lat="45.2381" lon="5.55567">
        <ele>1454</ele>
        <time>2013-10-01T20:11:21Z</time>
      </trkpt>
      <trkpt lat="45.23813" lon="5.5559">
        <ele>1455</ele>
        <time>2013-10-01T20:11:25Z</time>
      </trkpt>
      <trkpt lat="45.23817" lon="5.55634">
        <ele>1463</ele>
        <time>2013-10-01T20:11:33Z</time>
      </trkpt>
      <trkpt lat="45.23824" lon="5.55714">
        <ele>1469</ele>
        <time>2013-10-01T20:11:49Z</time>
      </trkpt>
      <trkpt lat="45.23813" lon="5.55756">
        <ele>1478</ele>
        <time>2013-10-01T20:11:57Z</time>
      </trkpt>
      <trkpt lat="45.23833" lon="5.55794">
        <ele>1469</ele>
        <time>2013-10-01T20:12:06Z</time>
      </trkpt>
      <trkpt lat="45.23832" lon="5.55883">
        <ele>1472</ele>
        <time>2013-10-01T20:12:22Z</time>
      </trkpt>
      <trkpt lat="45.23848" lon="5.55942">
        <ele>1461</ele>
        <time>2013-10-01T20:12:34Z</time>
      </trkpt>
      <trkpt lat="45.23851" lon="5.55983">
        <ele>1466</ele>
        <time>2013-10-01T20:12:42Z</time>
      </trkpt>
      <trkpt lat="45.23857" lon="5.56081">
        <ele>1480</ele>
        <time>2013-10-01T20:13:00Z</time>
      </trkpt>
      <trkpt lat="45.23861" lon="5.56137">
        <ele>1482</ele>
        <time>2013-10-01T20:13:11Z</time>
      </trkpt>
      <trkpt lat="45.23863" lon="5.56181">
        <ele>1484</ele>
        <time>2013-10-01T20:13:19Z</time>
      </trkpt>
      <trkpt lat="45.23863" lon="5.56258">
        <ele>1499</ele>
        <time>2013-10-01T20:13:34Z</time>
      </trkpt>
      <trkpt lat="45.23859" lon="5.56307">
        <ele>1507</ele>
        <time>2013-10-01T20:13:43Z</time>
      </trkpt>
      <trkpt lat="45.23866" lon="5.5636">
        <ele>1493</ele>
        <time>2013-10-01T20:13:53Z</time>
      </trkpt>
      <trkpt lat="45.23884" lon="5.56358">
        <ele>1472</ele>
        <time>2013-10-01T20:13:58Z</time>
      </trkpt>
      <trkpt lat="45.23866" lon="5.5636">
        <ele>1493</ele>
        <time>2013-10-01T20:14:03Z</time>
      </trkpt>
      <trkpt lat="45.23855" lon="5.56352">
        <ele>1503</ele>
        <time>2013-10-01T20:14:06Z</time>
      </trkpt>
      <trkpt lat="45.23853" lon="5.56399">
        <ele>1496</ele>
        <time>2013-10-01T20:14:15Z</time>
      </trkpt>
      <trkpt lat="45.23852" lon="5.5648">
        <ele>1495</ele>
        <time>2013-10-01T20:14:30Z</time>
      </trkpt>
      <trkpt lat="45.23826" lon="5.56488">
        <ele>1503</ele>
        <time>2013-10-01T20:14:37Z</time>
      </trkpt>
      <trkpt lat="45.2379" lon="5.5649">
        <ele>1505</ele>
        <time>2013-10-01T20:14:47Z</time>
      </trkpt>
      <trkpt lat="45.23789" lon="5.56446">
        <ele>1502</ele>
        <time>2013-10-01T20:14:55Z</time>
      </trkpt>
      <trkpt lat="45.23782" lon="5.5639">
        <ele>1497</ele>
        <time>2013-10-01T20:15:06Z</time>
      </trkpt>
      <trkpt lat="45.23767" lon="5.56336">
        <ele>1491</ele>
        <time>2013-10-01T20:15:16Z</time>
      </trkpt>
      <trkpt lat="45.23749" lon="5.56248">
        <ele>1481</ele>
        <time>2013-10-01T20:15:34Z</time>
      </trkpt>
      <trkpt lat="45.23725" lon="5.56151">
        <ele>1462</ele>
        <time>2013-10-01T20:15:53Z</time>
      </trkpt>
      <trkpt lat="45.23697" lon="5.56061">
        <ele>1456</ele>
        <time>2013-10-01T20:16:11Z</time>
      </trkpt>
      <trkpt lat="45.23659" lon="5.56004">
        <ele>1455</ele>
        <time>2013-10-01T20:16:26Z</time>
      </trkpt>
      <trkpt lat="45.23632" lon="5.55968">
        <ele>1452</ele>
        <time>2013-10-01T20:16:36Z</time>
      </trkpt>
      <trkpt lat="45.23601" lon="5.55932">
        <ele>1445</ele>
        <time>2013-10-01T20:16:47Z</time>
      </trkpt>
      <trkpt lat="45.2355" lon="5.55883">
        <ele>1440</ele>
        <time>2013-10-01T20:17:03Z</time>
      </trkpt>
      <trkpt lat="45.2352" lon="5.55852">
        <ele>1437</ele>
        <time>2013-10-01T20:17:13Z</time>
      </trkpt>
      <trkpt lat="45.2347" lon="5.55824">
        <ele>1432</ele>
        <time>2013-10-01T20:17:27Z</time>
      </trkpt>
      <trkpt lat="45.23438" lon="5.55778">
        <ele>1425</ele>
        <time>2013-10-01T20:17:40Z</time>
      </trkpt>
      <trkpt lat="45.23387" lon="5.5575">
        <ele>1416</ele>
        <time>2013-10-01T20:17:54Z</time>
      </trkpt>
      <trkpt lat="45.23289" lon="5.5577">
        <ele>1405</ele>
        <time>2013-10-01T20:18:21Z</time>
      </trkpt>
      <trkpt lat="45.23194" lon="5.557">
        <ele>1388</ele>
        <time>2013-10-01T20:18:49Z</time>
      </trkpt>
      <trkpt lat="45.23128" lon="5.55734">
        <ele>1382</ele>
        <time>2013-10-01T20:19:08Z</time>
      </trkpt>
      <trkpt lat="45.23071" lon="5.5578">
        <ele>1379</ele>
        <time>2013-10-01T20:19:25Z</time>
      </trkpt>
      <trkpt lat="45.22996" lon="5.55818">
        <ele>1371</ele>
        <time>2013-10-01T20:19:47Z</time>
      </trkpt>
      <trkpt lat="45.22996" lon="5.55774">
        <ele>1369</ele>
        <time>2013-10-01T20:19:55Z</time>
      </trkpt>
      <trkpt lat="45.2301" lon="5.55693">
        <ele>1367</ele>
        <time>2013-10-01T20:20:11Z</time>
      </trkpt>
      <trkpt lat="45.23029" lon="5.55629">
        <ele>1367</ele>
        <time>2013-10-01T20:20:24Z</time>
      </trkpt>
      <trkpt lat="45.23028" lon="5.55585">
        <ele>1367</ele>
        <time>2013-10-01T20:20:32Z</time>
      </trkpt>
      <trkpt lat="45.23047" lon="5.55498">
        <ele>1373</ele>
        <time>2013-10-01T20:20:49Z</time>
      </trkpt>
      <trkpt lat="45.23054" lon="5.55434">
        <ele>1379</ele>
        <time>2013-10-01T20:21:01Z</time>
      </trkpt>
      <trkpt lat="45.23088" lon="5.55392">
        <ele>1385</ele>
        <time>2013-10-01T20:21:13Z</time>
      </trkpt>
      <trkpt lat="45.23092" lon="5.55333">
        <ele>1391</ele>
        <time>2013-10-01T20:21:24Z</time>
      </trkpt>
      <trkpt lat="45.2306" lon="5.55328">
        <ele>1391</ele>
        <time>2013-10-01T20:21:33Z</time>
      </trkpt>
      <trkpt lat="45.23004" lon="5.55354">
        <ele>1386</ele>
        <time>2013-10-01T20:21:49Z</time>
      </trkpt>
      <trkpt lat="45.22958" lon="5.55366">
        <ele>1382</ele>
        <time>2013-10-01T20:22:01Z</time>
      </trkpt>
      <trkpt lat="45.22902" lon="5.55353">
        <ele>1384</ele>
        <time>2013-10-01T20:22:16Z</time>
      </trkpt>
      <trkpt lat="45.22851" lon="5.55322">
        <ele>1393</ele>
        <time>2013-10-01T20:22:31Z</time>
      </trkpt>
      <trkpt lat="45.22802" lon="5.55317">
        <ele>1395</ele>
        <time>2013-10-01T20:22:44Z</time>
      </trkpt>
      <trkpt lat="45.22696" lon="5.5533">
        <ele>1390</ele>
        <time>2013-10-01T20:23:13Z</time>
      </trkpt>
      <trkpt lat="45.22576" lon="5.55362">
        <ele>1380</ele>
        <time>2013-10-01T20:23:45Z</time>
      </trkpt>
      <trkpt lat="45.22481" lon="5.55375">
        <ele>1377</ele>
        <time>2013-10-01T20:24:11Z</time>
      </trkpt>
      <trkpt lat="45.22422" lon="5.55386">
        <ele>1373</ele>
        <time>2013-10-01T20:24:27Z</time>
      </trkpt>
      <trkpt lat="45.22351" lon="5.55348">
        <ele>1385</ele>
        <time>2013-10-01T20:24:47Z</time>
      </trkpt>
      <trkpt lat="45.22288" lon="5.55354">
        <ele>1384</ele>
        <time>2013-10-01T20:25:04Z</time>
      </trkpt>
      <trkpt lat="45.22106" lon="5.55335">
        <ele>1381</ele>
        <time>2013-10-01T20:25:52Z</time>
      </trkpt>
      <trkpt lat="45.22031" lon="5.55346">
        <ele>1381</ele>
        <time>2013-10-01T20:26:12Z</time>
      </trkpt>
      <trkpt lat="45.21931" lon="5.55356">
        <ele>1381</ele>
        <time>2013-10-01T20:26:39Z</time>
      </trkpt>
      <trkpt lat="45.21827" lon="5.55351">
        <ele>1377</ele>
        <time>2013-10-01T20:27:07Z</time>
      </trkpt>
      <trkpt lat="45.21749" lon="5.55365">
        <ele>1363</ele>
        <time>2013-10-01T20:27:28Z</time>
      </trkpt>
      <trkpt lat="45.21693" lon="5.55369">
        <ele>1364</ele>
        <time>2013-10-01T20:27:43Z</time>
      </trkpt>
      <trkpt lat="45.21595" lon="5.55413">
        <ele>1373</ele>
        <time>2013-10-01T20:28:10Z</time>
      </trkpt>
      <trkpt lat="45.2152" lon="5.55446">
        <ele>1358</ele>
        <time>2013-10-01T20:28:31Z</time>
      </trkpt>
      <trkpt lat="45.21548" lon="5.55574">
        <ele>1334</ele>
        <time>2013-10-01T20:28:56Z</time>
      </trkpt>
      <trkpt lat="45.21574" lon="5.55673">
        <ele>1317</ele>
        <time>2013-10-01T20:29:16Z</time>
      </trkpt>
      <trkpt lat="45.21575" lon="5.55761">
        <ele>1307</ele>
        <time>2013-10-01T20:29:33Z</time>
      </trkpt>
      <trkpt lat="45.21568" lon="5.55872">
        <ele>1299</ele>
        <time>2013-10-01T20:29:54Z</time>
      </trkpt>
      <trkpt lat="45.21585" lon="5.55989">
        <ele>1296</ele>
        <time>2013-10-01T20:30:16Z</time>
      </trkpt>
      <trkpt lat="45.21488" lon="5.56012">
        <ele>1294</ele>
        <time>2013-10-01T20:30:42Z</time>
      </trkpt>
      <trkpt lat="45.21416" lon="5.56014">
        <ele>1293</ele>
        <time>2013-10-01T20:31:01Z</time>
      </trkpt>
      <trkpt lat="45.21341" lon="5.56019">
        <ele>1293</ele>
        <time>2013-10-01T20:31:21Z</time>
      </trkpt>
      <trkpt lat="45.21312" lon="5.56001">
        <ele>1293</ele>
        <time>2013-10-01T20:31:30Z</time>
      </trkpt>
      <trkpt lat="45.21246" lon="5.55972">
        <ele>1293</ele>
        <time>2013-10-01T20:31:48Z</time>
      </trkpt>
      <trkpt lat="45.21125" lon="5.55924">
        <ele>1288</ele>
        <time>2013-10-01T20:32:22Z</time>
      </trkpt>
      <trkpt lat="45.21068" lon="5.55907">
        <ele>1285</ele>
        <time>2013-10-01T20:32:37Z</time>
      </trkpt>
      <trkpt lat="45.21015" lon="5.55896">
        <ele>1283</ele>
        <time>2013-10-01T20:32:52Z</time>
      </trkpt>
      <trkpt lat="45.20968" lon="5.55924">
        <ele>1287</ele>
        <time>2013-10-01T20:33:05Z</time>
      </trkpt>
      <trkpt lat="45.20926" lon="5.55887">
        <ele>1281</ele>
        <time>2013-10-01T20:33:18Z</time>
      </trkpt>
      <trkpt lat="45.20866" lon="5.5588">
        <ele>1280</ele>
        <time>2013-10-01T20:33:35Z</time>
      </trkpt>
      <trkpt lat="45.20785" lon="5.55868">
        <ele>1277</ele>
        <time>2013-10-01T20:33:56Z</time>
      </trkpt>
      <trkpt lat="45.20729" lon="5.55866">
        <ele>1273</ele>
        <time>2013-10-01T20:34:11Z</time>
      </trkpt>
      <trkpt lat="45.20682" lon="5.5585">
        <ele>1269</ele>
        <time>2013-10-01T20:34:24Z</time>
      </trkpt>
      <trkpt lat="45.20695" lon="5.55804">
        <ele>1271</ele>
        <time>2013-10-01T20:34:33Z</time>
      </trkpt>
      <trkpt lat="45.20644" lon="5.55797">
        <ele>1272</ele>
        <time>2013-10-01T20:34:47Z</time>
      </trkpt>
      <trkpt lat="45.20589" lon="5.55797">
        <ele>1277</ele>
        <time>2013-10-01T20:35:02Z</time>
      </trkpt>
      <trkpt lat="45.20502" lon="5.5579">
        <ele>1288</ele>
        <time>2013-10-01T20:35:25Z</time>
      </trkpt>
      <trkpt lat="45.20463" lon="5.55736">
        <ele>1293</ele>
        <time>2013-10-01T20:35:40Z</time>
      </trkpt>
      <trkpt lat="45.20432" lon="5.5567">
        <ele>1297</ele>
        <time>2013-10-01T20:35:54Z</time>
      </trkpt>
      <trkpt lat="45.20422" lon="5.55618">
        <ele>1300</ele>
        <time>2013-10-01T20:36:05Z</time>
      </trkpt>
      <trkpt lat="45.20388" lon="5.55581">
        <ele>1295</ele>
        <time>2013-10-01T20:36:16Z</time>
      </trkpt>
      <trkpt lat="45.2032" lon="5.55517">
        <ele>1281</ele>
        <time>2013-10-01T20:36:38Z</time>
      </trkpt>
      <trkpt lat="45.20246" lon="5.55516">
        <ele>1283</ele>
        <time>2013-10-01T20:36:58Z</time>
      </trkpt>
      <trkpt lat="45.20168" lon="5.55488">
        <ele>1285</ele>
        <time>2013-10-01T20:37:19Z</time>
      </trkpt>
      <trkpt lat="45.20057" lon="5.55444">
        <ele>1275</ele>
        <time>2013-10-01T20:37:50Z</time>
      </trkpt>
      <trkpt lat="45.20014" lon="5.55424">
        <ele>1272</ele>
        <time>2013-10-01T20:38:02Z</time>
      </trkpt>
      <trkpt lat="45.20005" lon="5.55375">
        <ele>1276</ele>
        <time>2013-10-01T20:38:12Z</time>
      </trkpt>
      <trkpt lat="45.19971" lon="5.55226">
        <ele>1281</ele>
        <time>2013-10-01T20:38:41Z</time>
      </trkpt>
      <trkpt lat="45.1997" lon="5.55185">
        <ele>1285</ele>
        <time>2013-10-01T20:38:49Z</time>
      </trkpt>
      <trkpt lat="45.19973" lon="5.5515">
        <ele>1289</ele>
        <time>2013-10-01T20:38:55Z</time>
      </trkpt>
      <trkpt lat="45.19988" lon="5.5512">
        <ele>1295</ele>
        <time>2013-10-01T20:39:02Z</time>
      </trkpt>
      <trkpt lat="45.19999" lon="5.55075">
        <ele>1301</ele>
        <time>2013-10-01T20:39:11Z</time>
      </trkpt>
      <trkpt lat="45.20029" lon="5.55009">
        <ele>1306</ele>
        <time>2013-10-01T20:39:26Z</time>
      </trkpt>
      <trkpt lat="45.2012" lon="5.5497">
        <ele>1319</ele>
        <time>2013-10-01T20:39:51Z</time>
      </trkpt>
      <trkpt lat="45.20142" lon="5.54934">
        <ele>1326</ele>
        <time>2013-10-01T20:40:00Z</time>
      </trkpt>
      <trkpt lat="45.20143" lon="5.54892">
        <ele>1330</ele>
        <time>2013-10-01T20:40:08Z</time>
      </trkpt>
      <trkpt lat="45.20116" lon="5.54783">
        <ele>1336</ele>
        <time>2013-10-01T20:40:30Z</time>
      </trkpt>
      <trkpt lat="45.20079" lon="5.54742">
        <ele>1330</ele>
        <time>2013-10-01T20:40:42Z</time>
      </trkpt>
      <trkpt lat="45.20072" lon="5.54715">
        <ele>1333</ele>
        <time>2013-10-01T20:40:48Z</time>
      </trkpt>
      <trkpt lat="45.20087" lon="5.54711">
        <ele>1339</ele>
        <time>2013-10-01T20:40:52Z</time>
      </trkpt>
      <trkpt lat="45.20055" lon="5.54642">
        <ele>1351</ele>
        <time>2013-10-01T20:41:07Z</time>
      </trkpt>
      <trkpt lat="45.20114" lon="5.547">
        <ele>1351</ele>
        <time>2013-10-01T20:41:26Z</time>
      </trkpt>
      <trkpt lat="45.201" lon="5.54642">
        <ele>1362</ele>
        <time>2013-10-01T20:41:38Z</time>
      </trkpt>
      <trkpt lat="45.20151" lon="5.54667">
        <ele>1368</ele>
        <time>2013-10-01T20:41:52Z</time>
      </trkpt>
      <trkpt lat="45.20221" lon="5.54665">
        <ele>1383</ele>
        <time>2013-10-01T20:42:11Z</time>
      </trkpt>
      <trkpt lat="45.20193" lon="5.54615">
        <ele>1386</ele>
        <time>2013-10-01T20:42:23Z</time>
      </trkpt>
      <trkpt lat="45.2023" lon="5.54608">
        <ele>1393</ele>
        <time>2013-10-01T20:42:32Z</time>
      </trkpt>
      <trkpt lat="45.20273" lon="5.54521">
        <ele>1407</ele>
        <time>2013-10-01T20:42:52Z</time>
      </trkpt>
      <trkpt lat="45.20243" lon="5.54529">
        <ele>1404</ele>
        <time>2013-10-01T20:43:00Z</time>
      </trkpt>
      <trkpt lat="45.20228" lon="5.54503">
        <ele>1403</ele>
        <time>2013-10-01T20:43:07Z</time>
      </trkpt>
      <trkpt lat="45.20273" lon="5.54432">
        <ele>1402</ele>
        <time>2013-10-01T20:43:25Z</time>
      </trkpt>
      <trkpt lat="45.20323" lon="5.54397">
        <ele>1402</ele>
        <time>2013-10-01T20:43:40Z</time>
      </trkpt>
      <trkpt lat="45.20334" lon="5.5435">
        <ele>1392</ele>
        <time>2013-10-01T20:43:49Z</time>
      </trkpt>
      <trkpt lat="45.20392" lon="5.54296">
        <ele>1385</ele>
        <time>2013-10-01T20:44:07Z</time>
      </trkpt>
      <trkpt lat="45.20398" lon="5.54242">
        <ele>1368</ele>
        <time>2013-10-01T20:44:18Z</time>
      </trkpt>
      <trkpt lat="45.20418" lon="5.5423">
        <ele>1367</ele>
        <time>2013-10-01T20:44:23Z</time>
      </trkpt>
      <trkpt lat="45.20432" lon="5.54218">
        <ele>1365</ele>
        <time>2013-10-01T20:44:28Z</time>
      </trkpt>
      <trkpt lat="45.20422" lon="5.54186">
        <ele>1357</ele>
        <time>2013-10-01T20:44:34Z</time>
      </trkpt>
      <trkpt lat="45.20431" lon="5.54174">
        <ele>1355</ele>
        <time>2013-10-01T20:44:38Z</time>
      </trkpt>
      <trkpt lat="45.20447" lon="5.54168">
        <ele>1356</ele>
        <time>2013-10-01T20:44:42Z</time>
      </trkpt>
      <trkpt lat="45.20445" lon="5.54149">
        <ele>1352</ele>
        <time>2013-10-01T20:44:46Z</time>
      </trkpt>
      <trkpt lat="45.20421" lon="5.54151">
        <ele>1349</ele>
        <time>2013-10-01T20:44:52Z</time>
      </trkpt>
      <trkpt lat="45.20417" lon="5.54116">
        <ele>1344</ele>
        <time>2013-10-01T20:44:59Z</time>
      </trkpt>
      <trkpt lat="45.2046" lon="5.54045">
        <ele>1339</ele>
        <time>2013-10-01T20:45:17Z</time>
      </trkpt>
      <trkpt lat="45.20539" lon="5.54021">
        <ele>1342</ele>
        <time>2013-10-01T20:45:38Z</time>
      </trkpt>
      <trkpt lat="45.20558" lon="5.54006">
        <ele>1342</ele>
        <time>2013-10-01T20:45:44Z</time>
      </trkpt>
      <trkpt lat="45.20559" lon="5.53961">
        <ele>1337</ele>
        <time>2013-10-01T20:45:52Z</time>
      </trkpt>
      <trkpt lat="45.20524" lon="5.53915">
        <ele>1334</ele>
        <time>2013-10-01T20:46:05Z</time>
      </trkpt>
      <trkpt lat="45.20484" lon="5.53915">
        <ele>1329</ele>
        <time>2013-10-01T20:46:16Z</time>
      </trkpt>
      <trkpt lat="45.20402" lon="5.53908">
        <ele>1321</ele>
        <time>2013-10-01T20:46:38Z</time>
      </trkpt>
      <trkpt lat="45.2033" lon="5.53925">
        <ele>1313</ele>
        <time>2013-10-01T20:46:57Z</time>
      </trkpt>
      <trkpt lat="45.20305" lon="5.53889">
        <ele>1308</ele>
        <time>2013-10-01T20:47:07Z</time>
      </trkpt>
      <trkpt lat="45.20269" lon="5.53881">
        <ele>1304</ele>
        <time>2013-10-01T20:47:16Z</time>
      </trkpt>
      <trkpt lat="45.20245" lon="5.53802">
        <ele>1302</ele>
        <time>2013-10-01T20:47:32Z</time>
      </trkpt>
      <trkpt lat="45.20189" lon="5.53803">
        <ele>1294</ele>
        <time>2013-10-01T20:47:48Z</time>
      </trkpt>
      <trkpt lat="45.20147" lon="5.53825">
        <ele>1288</ele>
        <time>2013-10-01T20:47:59Z</time>
      </trkpt>
      <trkpt lat="45.20113" lon="5.53807">
        <ele>1284</ele>
        <time>2013-10-01T20:48:09Z</time>
      </trkpt>
      <trkpt lat="45.20095" lon="5.53762">
        <ele>1282</ele>
        <time>2013-10-01T20:48:19Z</time>
      </trkpt>
      <trkpt lat="45.20045" lon="5.53724">
        <ele>1276</ele>
        <time>2013-10-01T20:48:34Z</time>
      </trkpt>
      <trkpt lat="45.1998" lon="5.53725">
        <ele>1269</ele>
        <time>2013-10-01T20:48:51Z</time>
      </trkpt>
      <trkpt lat="45.19921" lon="5.53725">
        <ele>1263</ele>
        <time>2013-10-01T20:49:07Z</time>
      </trkpt>
      <trkpt lat="45.19864" lon="5.53727">
        <ele>1256</ele>
        <time>2013-10-01T20:49:22Z</time>
      </trkpt>
      <trkpt lat="45.19818" lon="5.5375">
        <ele>1249</ele>
        <time>2013-10-01T20:49:35Z</time>
      </trkpt>
      <trkpt lat="45.19755" lon="5.53765">
        <ele>1239</ele>
        <time>2013-10-01T20:49:52Z</time>
      </trkpt>
      <trkpt lat="45.1971" lon="5.53725">
        <ele>1236</ele>
        <time>2013-10-01T20:50:07Z</time>
      </trkpt>
      <trkpt lat="45.19625" lon="5.53674">
        <ele>1228</ele>
        <time>2013-10-01T20:50:31Z</time>
      </trkpt>
      <trkpt lat="45.19587" lon="5.5367">
        <ele>1224</ele>
        <time>2013-10-01T20:50:41Z</time>
      </trkpt>
      <trkpt lat="45.19558" lon="5.53705">
        <ele>1215</ele>
        <time>2013-10-01T20:50:51Z</time>
      </trkpt>
      <trkpt lat="45.19599" lon="5.53718">
        <ele>1218</ele>
        <time>2013-10-01T20:51:03Z</time>
      </trkpt>
      <trkpt lat="45.19655" lon="5.53756">
        <ele>1223</ele>
        <time>2013-10-01T20:51:19Z</time>
      </trkpt>
      <trkpt lat="45.1961" lon="5.53779">
        <ele>1214</ele>
        <time>2013-10-01T20:51:32Z</time>
      </trkpt>
      <trkpt lat="45.19513" lon="5.53777">
        <ele>1199</ele>
        <time>2013-10-01T20:51:58Z</time>
      </trkpt>
      <trkpt lat="45.19388" lon="5.53741">
        <ele>1185</ele>
        <time>2013-10-01T20:52:32Z</time>
      </trkpt>
      <trkpt lat="45.1932" lon="5.53775">
        <ele>1167</ele>
        <time>2013-10-01T20:52:51Z</time>
      </trkpt>
      <trkpt lat="45.19221" lon="5.53766">
        <ele>1153</ele>
        <time>2013-10-01T20:53:18Z</time>
      </trkpt>
      <trkpt lat="45.19125" lon="5.53745">
        <ele>1145</ele>
        <time>2013-10-01T20:53:44Z</time>
      </trkpt>
      <trkpt lat="45.19051" lon="5.53814">
        <ele>1128</ele>
        <time>2013-10-01T20:54:07Z</time>
      </trkpt>
      <trkpt lat="45.19013" lon="5.53856">
        <ele>1125</ele>
        <time>2013-10-01T20:54:20Z</time>
      </trkpt>
      <trkpt lat="45.18959" lon="5.5386">
        <ele>1118</ele>
        <time>2013-10-01T20:54:35Z</time>
      </trkpt>
      <trkpt lat="45.18954" lon="5.53735">
        <ele>1125</ele>
        <time>2013-10-01T20:54:58Z</time>
      </trkpt>
      <trkpt lat="45.18926" lon="5.5367">
        <ele>1126</ele>
        <time>2013-10-01T20:55:12Z</time>
      </trkpt>
      <trkpt lat="45.18812" lon="5.53593">
        <ele>1118</ele>
        <time>2013-10-01T20:55:46Z</time>
      </trkpt>
      <trkpt lat="45.18773" lon="5.53561">
        <ele>1117</ele>
        <time>2013-10-01T20:55:58Z</time>
      </trkpt>
      <trkpt lat="45.18677" lon="5.53506">
        <ele>1108</ele>
        <time>2013-10-01T20:56:26Z</time>
      </trkpt>
      <trkpt lat="45.18619" lon="5.53489">
        <ele>1099</ele>
        <time>2013-10-01T20:56:41Z</time>
      </trkpt>
      <trkpt lat="45.18615" lon="5.53448">
        <ele>1099</ele>
        <time>2013-10-01T20:56:49Z</time>
      </trkpt>
      <trkpt lat="45.18621" lon="5.53401">
        <ele>1101</ele>
        <time>2013-10-01T20:56:58Z</time>
      </trkpt>
      <trkpt lat="45.18554" lon="5.5333">
        <ele>1094</ele>
        <time>2013-10-01T20:57:21Z</time>
      </trkpt>
      <trkpt lat="45.18501" lon="5.53286">
        <ele>1088</ele>
        <time>2013-10-01T20:57:37Z</time>
      </trkpt>
      <trkpt lat="45.18469" lon="5.53255">
        <ele>1086</ele>
        <time>2013-10-01T20:57:47Z</time>
      </trkpt>
      <trkpt lat="45.18358" lon="5.53074">
        <ele>1099</ele>
        <time>2013-10-01T20:58:32Z</time>
      </trkpt>
      <trkpt lat="45.18259" lon="5.53001">
        <ele>1092</ele>
        <time>2013-10-01T20:59:02Z</time>
      </trkpt>
      <trkpt lat="45.18176" lon="5.5292">
        <ele>1089</ele>
        <time>2013-10-01T20:59:29Z</time>
      </trkpt>
      <trkpt lat="45.1814" lon="5.53017">
        <ele>1067</ele>
        <time>2013-10-01T20:59:50Z</time>
      </trkpt>
      <trkpt lat="45.1812" lon="5.53049">
        <ele>1060</ele>
        <time>2013-10-01T20:59:58Z</time>
      </trkpt>
      <trkpt lat="45.18131" lon="5.5312">
        <ele>1054</ele>
        <time>2013-10-01T21:00:11Z</time>
      </trkpt>
      <trkpt lat="45.18092" lon="5.53231">
        <ele>1046</ele>
        <time>2013-10-01T21:00:35Z</time>
      </trkpt>
      <trkpt lat="45.18045" lon="5.53342">
        <ele>1044</ele>
        <time>2013-10-01T21:00:59Z</time>
      </trkpt>
      <trkpt lat="45.1795" lon="5.53337">
        <ele>1038</ele>
        <time>2013-10-01T21:01:24Z</time>
      </trkpt>
      <trkpt lat="45.17911" lon="5.533">
        <ele>1037</ele>
        <time>2013-10-01T21:01:37Z</time>
      </trkpt>
      <trkpt lat="45.17863" lon="5.53285">
        <ele>1036</ele>
        <time>2013-10-01T21:01:50Z</time>
      </trkpt>
      <trkpt lat="45.17823" lon="5.53276">
        <ele>1035</ele>
        <time>2013-10-01T21:02:01Z</time>
      </trkpt>
      <trkpt lat="45.1779" lon="5.53348">
        <ele>1035</ele>
        <time>2013-10-01T21:02:17Z</time>
      </trkpt>
      <trkpt lat="45.17688" lon="5.53637">
        <ele>1044</ele>
        <time>2013-10-01T21:03:17Z</time>
      </trkpt>
      <trkpt lat="45.17669" lon="5.53706">
        <ele>1045</ele>
        <time>2013-10-01T21:03:31Z</time>
      </trkpt>
      <trkpt lat="45.1765" lon="5.53762">
        <ele>1044</ele>
        <time>2013-10-01T21:03:43Z</time>
      </trkpt>
      <trkpt lat="45.17627" lon="5.53843">
        <ele>1040</ele>
        <time>2013-10-01T21:04:00Z</time>
      </trkpt>
      <trkpt lat="45.17592" lon="5.53972">
        <ele>1037</ele>
        <time>2013-10-01T21:04:26Z</time>
      </trkpt>
      <trkpt lat="45.17518" lon="5.54187">
        <ele>1038</ele>
        <time>2013-10-01T21:05:11Z</time>
      </trkpt>
      <trkpt lat="45.17489" lon="5.54185">
        <ele>1038</ele>
        <time>2013-10-01T21:05:18Z</time>
      </trkpt>
      <trkpt lat="45.17508" lon="5.54247">
        <ele>1039</ele>
        <time>2013-10-01T21:05:31Z</time>
      </trkpt>
      <trkpt lat="45.17481" lon="5.54248">
        <ele>1038</ele>
        <time>2013-10-01T21:05:38Z</time>
      </trkpt>
      <trkpt lat="45.1737" lon="5.5449">
        <ele>1043</ele>
        <time>2013-10-01T21:06:32Z</time>
      </trkpt>
      <trkpt lat="45.17341" lon="5.54489">
        <ele>1043</ele>
        <time>2013-10-01T21:06:40Z</time>
      </trkpt>
      <trkpt lat="45.17227" lon="5.54762">
        <ele>1058</ele>
        <time>2013-10-01T21:07:40Z</time>
      </trkpt>
      <trkpt lat="45.17134" lon="5.54964">
        <ele>1064</ele>
        <time>2013-10-01T21:08:25Z</time>
      </trkpt>
      <trkpt lat="45.16997" lon="5.55086">
        <ele>1080</ele>
        <time>2013-10-01T21:09:08Z</time>
      </trkpt>
      <trkpt lat="45.16958" lon="5.55189">
        <ele>1081</ele>
        <time>2013-10-01T21:09:30Z</time>
      </trkpt>
      <trkpt lat="45.16934" lon="5.55235">
        <ele>1080</ele>
        <time>2013-10-01T21:09:41Z</time>
      </trkpt>
      <trkpt lat="45.16914" lon="5.55237">
        <ele>1080</ele>
        <time>2013-10-01T21:09:46Z</time>
      </trkpt>
      <trkpt lat="45.1691" lon="5.55068">
        <ele>1091</ele>
        <time>2013-10-01T21:10:18Z</time>
      </trkpt>
      <trkpt lat="45.1687" lon="5.54888">
        <ele>1122</ele>
        <time>2013-10-01T21:10:54Z</time>
      </trkpt>
      <trkpt lat="45.16799" lon="5.54861">
        <ele>1134</ele>
        <time>2013-10-01T21:11:13Z</time>
      </trkpt>
      <trkpt lat="45.16727" lon="5.54762">
        <ele>1159</ele>
        <time>2013-10-01T21:11:40Z</time>
      </trkpt>
      <trkpt lat="45.16667" lon="5.54672">
        <ele>1175</ele>
        <time>2013-10-01T21:12:03Z</time>
      </trkpt>
      <trkpt lat="45.1676" lon="5.54656">
        <ele>1193</ele>
        <time>2013-10-01T21:12:28Z</time>
      </trkpt>
      <trkpt lat="45.16833" lon="5.54625">
        <ele>1195</ele>
        <time>2013-10-01T21:12:49Z</time>
      </trkpt>
      <trkpt lat="45.16891" lon="5.54634">
        <ele>1178</ele>
        <time>2013-10-01T21:13:04Z</time>
      </trkpt>
      <trkpt lat="45.1687" lon="5.54589">
        <ele>1183</ele>
        <time>2013-10-01T21:13:14Z</time>
      </trkpt>
      <trkpt lat="45.16852" lon="5.54572">
        <ele>1185</ele>
        <time>2013-10-01T21:13:20Z</time>
      </trkpt>
      <trkpt lat="45.16774" lon="5.54539">
        <ele>1183</ele>
        <time>2013-10-01T21:13:42Z</time>
      </trkpt>
      <trkpt lat="45.16713" lon="5.54504">
        <ele>1175</ele>
        <time>2013-10-01T21:13:59Z</time>
      </trkpt>
      <trkpt lat="45.16663" lon="5.54447">
        <ele>1167</ele>
        <time>2013-10-01T21:14:17Z</time>
      </trkpt>
      <trkpt lat="45.16591" lon="5.54366">
        <ele>1162</ele>
        <time>2013-10-01T21:14:41Z</time>
      </trkpt>
      <trkpt lat="45.16477" lon="5.54324">
        <ele>1163</ele>
        <time>2013-10-01T21:15:12Z</time>
      </trkpt>
      <trkpt lat="45.16422" lon="5.543">
        <ele>1165</ele>
        <time>2013-10-01T21:15:28Z</time>
      </trkpt>
      <trkpt lat="45.16303" lon="5.54215">
        <ele>1160</ele>
        <time>2013-10-01T21:16:03Z</time>
      </trkpt>
      <trkpt lat="45.16218" lon="5.54121">
        <ele>1146</ele>
        <time>2013-10-01T21:16:32Z</time>
      </trkpt>
      <trkpt lat="45.16056" lon="5.54163">
        <ele>1132</ele>
        <time>2013-10-01T21:17:16Z</time>
      </trkpt>
      <trkpt lat="45.15972" lon="5.54112">
        <ele>1122</ele>
        <time>2013-10-01T21:17:40Z</time>
      </trkpt>
      <trkpt lat="45.15888" lon="5.54103">
        <ele>1110</ele>
        <time>2013-10-01T21:18:03Z</time>
      </trkpt>
      <trkpt lat="45.15817" lon="5.5402">
        <ele>1098</ele>
        <time>2013-10-01T21:18:27Z</time>
      </trkpt>
      <trkpt lat="45.15745" lon="5.53938">
        <ele>1108</ele>
        <time>2013-10-01T21:18:52Z</time>
      </trkpt>
      <trkpt lat="45.15709" lon="5.53898">
        <ele>1121</ele>
        <time>2013-10-01T21:19:04Z</time>
      </trkpt>
      <trkpt lat="45.15677" lon="5.5384">
        <ele>1128</ele>
        <time>2013-10-01T21:19:18Z</time>
      </trkpt>
      <trkpt lat="45.15651" lon="5.53749">
        <ele>1132</ele>
        <time>2013-10-01T21:19:36Z</time>
      </trkpt>
      <trkpt lat="45.15624" lon="5.53666">
        <ele>1135</ele>
        <time>2013-10-01T21:19:54Z</time>
      </trkpt>
      <trkpt lat="45.15601" lon="5.53625">
        <ele>1140</ele>
        <time>2013-10-01T21:20:04Z</time>
      </trkpt>
      <trkpt lat="45.15564" lon="5.53616">
        <ele>1143</ele>
        <time>2013-10-01T21:20:14Z</time>
      </trkpt>
      <trkpt lat="45.15539" lon="5.53629">
        <ele>1146</ele>
        <time>2013-10-01T21:20:21Z</time>
      </trkpt>
      <trkpt lat="45.15486" lon="5.53652">
        <ele>1154</ele>
        <time>2013-10-01T21:20:35Z</time>
      </trkpt>
      <trkpt lat="45.15431" lon="5.53659">
        <ele>1160</ele>
        <time>2013-10-01T21:20:50Z</time>
      </trkpt>
      <trkpt lat="45.15424" lon="5.53549">
        <ele>1144</ele>
        <time>2013-10-01T21:21:11Z</time>
      </trkpt>
      <trkpt lat="45.15425" lon="5.5343">
        <ele>1127</ele>
        <time>2013-10-01T21:21:34Z</time>
      </trkpt>
      <trkpt lat="45.1539" lon="5.53385">
        <ele>1124</ele>
        <time>2013-10-01T21:21:46Z</time>
      </trkpt>
      <trkpt lat="45.15328" lon="5.53336">
        <ele>1117</ele>
        <time>2013-10-01T21:22:05Z</time>
      </trkpt>
      <trkpt lat="45.15242" lon="5.53264">
        <ele>1117</ele>
        <time>2013-10-01T21:22:32Z</time>
      </trkpt>
      <trkpt lat="45.15141" lon="5.53201">
        <ele>1113</ele>
        <time>2013-10-01T21:23:01Z</time>
      </trkpt>
      <trkpt lat="45.15029" lon="5.53182">
        <ele>1102</ele>
        <time>2013-10-01T21:23:31Z</time>
      </trkpt>
      <trkpt lat="45.14934" lon="5.53189">
        <ele>1093</ele>
        <time>2013-10-01T21:23:57Z</time>
      </trkpt>
      <trkpt lat="45.14864" lon="5.5321">
        <ele>1087</ele>
        <time>2013-10-01T21:24:16Z</time>
      </trkpt>
      <trkpt lat="45.14789" lon="5.53187">
        <ele>1082</ele>
        <time>2013-10-01T21:24:36Z</time>
      </trkpt>
      <trkpt lat="45.14666" lon="5.53118">
        <ele>1080</ele>
        <time>2013-10-01T21:25:11Z</time>
      </trkpt>
      <trkpt lat="45.14604" lon="5.53071">
        <ele>1073</ele>
        <time>2013-10-01T21:25:30Z</time>
      </trkpt>
      <trkpt lat="45.1457" lon="5.53025">
        <ele>1064</ele>
        <time>2013-10-01T21:25:43Z</time>
      </trkpt>
      <trkpt lat="45.14489" lon="5.53014">
        <ele>1047</ele>
        <time>2013-10-01T21:26:04Z</time>
      </trkpt>
      <trkpt lat="45.14416" lon="5.52968">
        <ele>1041</ele>
        <time>2013-10-01T21:26:26Z</time>
      </trkpt>
      <trkpt lat="45.1426" lon="5.52991">
        <ele>1045</ele>
        <time>2013-10-01T21:27:07Z</time>
      </trkpt>
      <trkpt lat="45.14039" lon="5.52931">
        <ele>1056</ele>
        <time>2013-10-01T21:28:07Z</time>
      </trkpt>
      <trkpt lat="45.13938" lon="5.52931">
        <ele>1065</ele>
        <time>2013-10-01T21:28:34Z</time>
      </trkpt>
      <trkpt lat="45.13838" lon="5.5296">
        <ele>1069</ele>
        <time>2013-10-01T21:29:02Z</time>
      </trkpt>
      <trkpt lat="45.13792" lon="5.52977">
        <ele>1067</ele>
        <time>2013-10-01T21:29:14Z</time>
      </trkpt>
      <trkpt lat="45.13677" lon="5.52996">
        <ele>1052</ele>
        <time>2013-10-01T21:29:45Z</time>
      </trkpt>
      <trkpt lat="45.13594" lon="5.52969">
        <ele>1038</ele>
        <time>2013-10-01T21:30:08Z</time>
      </trkpt>
      <trkpt lat="45.13575" lon="5.53012">
        <ele>1033</ele>
        <time>2013-10-01T21:30:17Z</time>
      </trkpt>
      <trkpt lat="45.13548" lon="5.53026">
        <ele>1024</ele>
        <time>2013-10-01T21:30:25Z</time>
      </trkpt>
      <trkpt lat="45.13553" lon="5.53071">
        <ele>1019</ele>
        <time>2013-10-01T21:30:34Z</time>
      </trkpt>
      <trkpt lat="45.13485" lon="5.53023">
        <ele>1006</ele>
        <time>2013-10-01T21:30:54Z</time>
      </trkpt>
      <trkpt lat="45.13367" lon="5.53032">
        <ele>984</ele>
        <time>2013-10-01T21:31:25Z</time>
      </trkpt>
      <trkpt lat="45.13316" lon="5.53026">
        <ele>981</ele>
        <time>2013-10-01T21:31:39Z</time>
      </trkpt>
      <trkpt lat="45.13301" lon="5.53">
        <ele>979</ele>
        <time>2013-10-01T21:31:46Z</time>
      </trkpt>
      <trkpt lat="45.13305" lon="5.52784">
        <ele>978</ele>
        <time>2013-10-01T21:32:26Z</time>
      </trkpt>
      <trkpt lat="45.1315" lon="5.52861">
        <ele>974</ele>
        <time>2013-10-01T21:33:10Z</time>
      </trkpt>
      <trkpt lat="45.13105" lon="5.52833">
        <ele>974</ele>
        <time>2013-10-01T21:33:23Z</time>
      </trkpt>
      <trkpt lat="45.13095" lon="5.52803">
        <ele>974</ele>
        <time>2013-10-01T21:33:29Z</time>
      </trkpt>
      <trkpt lat="45.12846" lon="5.52786">
        <ele>986</ele>
        <time>2013-10-01T21:34:36Z</time>
      </trkpt>
      <trkpt lat="45.1281" lon="5.52765">
        <ele>987</ele>
        <time>2013-10-01T21:34:46Z</time>
      </trkpt>
      <trkpt lat="45.12729" lon="5.52703">
        <ele>992</ele>
        <time>2013-10-01T21:35:11Z</time>
      </trkpt>
      <trkpt lat="45.12768" lon="5.52448">
        <ele>997</ele>
        <time>2013-10-01T21:36:00Z</time>
      </trkpt>
      <trkpt lat="45.12805" lon="5.52259">
        <ele>1001</ele>
        <time>2013-10-01T21:36:37Z</time>
      </trkpt>
      <trkpt lat="45.12808" lon="5.52126">
        <ele>1003</ele>
        <time>2013-10-01T21:37:02Z</time>
      </trkpt>
      <trkpt lat="45.1276" lon="5.52055">
        <ele>1011</ele>
        <time>2013-10-01T21:37:20Z</time>
      </trkpt>
      <trkpt lat="45.1269" lon="5.52023">
        <ele>1015</ele>
        <time>2013-10-01T21:37:40Z</time>
      </trkpt>
      <trkpt lat="45.12584" lon="5.51974">
        <ele>1017</ele>
        <time>2013-10-01T21:38:10Z</time>
      </trkpt>
      <trkpt lat="45.12478" lon="5.51884">
        <ele>1030</ele>
        <time>2013-10-01T21:38:43Z</time>
      </trkpt>
      <trkpt lat="45.12417" lon="5.51807">
        <ele>1039</ele>
        <time>2013-10-01T21:39:04Z</time>
      </trkpt>
      <trkpt lat="45.12403" lon="5.51737">
        <ele>1042</ele>
        <time>2013-10-01T21:39:18Z</time>
      </trkpt>
      <trkpt lat="45.12296" lon="5.51623">
        <ele>1058</ele>
        <time>2013-10-01T21:39:54Z</time>
      </trkpt>
      <trkpt lat="45.12278" lon="5.51552">
        <ele>1064</ele>
        <time>2013-10-01T21:40:08Z</time>
      </trkpt>
      <trkpt lat="45.11981" lon="5.51229">
        <ele>1117</ele>
        <time>2013-10-01T21:41:48Z</time>
      </trkpt>
      <trkpt lat="45.11724" lon="5.51014">
        <ele>1155</ele>
        <time>2013-10-01T21:43:07Z</time>
      </trkpt>
      <trkpt lat="45.11673" lon="5.50907">
        <ele>1157</ele>
        <time>2013-10-01T21:43:32Z</time>
      </trkpt>
      <trkpt lat="45.11354" lon="5.50721">
        <ele>1194</ele>
        <time>2013-10-01T21:45:04Z</time>
      </trkpt>
      <trkpt lat="45.11242" lon="5.50615">
        <ele>1202</ele>
        <time>2013-10-01T21:45:40Z</time>
      </trkpt>
      <trkpt lat="45.11167" lon="5.50579">
        <ele>1215</ele>
        <time>2013-10-01T21:46:01Z</time>
      </trkpt>
      <trkpt lat="45.10994" lon="5.50391">
        <ele>1239</ele>
        <time>2013-10-01T21:46:59Z</time>
      </trkpt>
      <trkpt lat="45.11079" lon="5.50415">
        <ele>1238</ele>
        <time>2013-10-01T21:47:22Z</time>
      </trkpt>
      <trkpt lat="45.11181" lon="5.50494">
        <ele>1232</ele>
        <time>2013-10-01T21:47:53Z</time>
      </trkpt>
      <trkpt lat="45.11355" lon="5.50548">
        <ele>1227</ele>
        <time>2013-10-01T21:48:40Z</time>
      </trkpt>
      <trkpt lat="45.11406" lon="5.50485">
        <ele>1245</ele>
        <time>2013-10-01T21:48:58Z</time>
      </trkpt>
      <trkpt lat="45.11487" lon="5.50575">
        <ele>1239</ele>
        <time>2013-10-01T21:49:26Z</time>
      </trkpt>
      <trkpt lat="45.11561" lon="5.50478">
        <ele>1245</ele>
        <time>2013-10-01T21:49:53Z</time>
      </trkpt>
      <trkpt lat="45.11589" lon="5.50613">
        <ele>1232</ele>
        <time>2013-10-01T21:50:19Z</time>
      </trkpt>
      <trkpt lat="45.11688" lon="5.50707">
        <ele>1229</ele>
        <time>2013-10-01T21:50:51Z</time>
      </trkpt>
      <trkpt lat="45.11749" lon="5.50706">
        <ele>1241</ele>
        <time>2013-10-01T21:51:08Z</time>
      </trkpt>
      <trkpt lat="45.11803" lon="5.50758">
        <ele>1244</ele>
        <time>2013-10-01T21:51:25Z</time>
      </trkpt>
      <trkpt lat="45.1186" lon="5.50779">
        <ele>1250</ele>
        <time>2013-10-01T21:51:41Z</time>
      </trkpt>
      <trkpt lat="45.11916" lon="5.50793">
        <ele>1244</ele>
        <time>2013-10-01T21:51:56Z</time>
      </trkpt>
      <trkpt lat="45.11957" lon="5.50738">
        <ele>1253</ele>
        <time>2013-10-01T21:52:11Z</time>
      </trkpt>
      <trkpt lat="45.12019" lon="5.50761">
        <ele>1249</ele>
        <time>2013-10-01T21:52:28Z</time>
      </trkpt>
      <trkpt lat="45.12062" lon="5.5076">
        <ele>1255</ele>
        <time>2013-10-01T21:52:39Z</time>
      </trkpt>
      <trkpt lat="45.12152" lon="5.50769">
        <ele>1257</ele>
        <time>2013-10-01T21:53:03Z</time>
      </trkpt>
      <trkpt lat="45.1227" lon="5.50651">
        <ele>1258</ele>
        <time>2013-10-01T21:53:42Z</time>
      </trkpt>
      <trkpt lat="45.1231" lon="5.50574">
        <ele>1267</ele>
        <time>2013-10-01T21:54:00Z</time>
      </trkpt>
      <trkpt lat="45.12369" lon="5.5066">
        <ele>1251</ele>
        <time>2013-10-01T21:54:22Z</time>
      </trkpt>
      <trkpt lat="45.12399" lon="5.50633">
        <ele>1259</ele>
        <time>2013-10-01T21:54:32Z</time>
      </trkpt>
      <trkpt lat="45.12432" lon="5.50643">
        <ele>1259</ele>
        <time>2013-10-01T21:54:41Z</time>
      </trkpt>
      <trkpt lat="45.12455" lon="5.50614">
        <ele>1265</ele>
        <time>2013-10-01T21:54:49Z</time>
      </trkpt>
      <trkpt lat="45.12477" lon="5.50571">
        <ele>1270</ele>
        <time>2013-10-01T21:54:59Z</time>
      </trkpt>
      <trkpt lat="45.12528" lon="5.50593">
        <ele>1266</ele>
        <time>2013-10-01T21:55:13Z</time>
      </trkpt>
      <trkpt lat="45.12561" lon="5.50687">
        <ele>1248</ele>
        <time>2013-10-01T21:55:33Z</time>
      </trkpt>
      <trkpt lat="45.12621" lon="5.50716">
        <ele>1255</ele>
        <time>2013-10-01T21:55:50Z</time>
      </trkpt>
      <trkpt lat="45.12672" lon="5.50757">
        <ele>1254</ele>
        <time>2013-10-01T21:56:06Z</time>
      </trkpt>
      <trkpt lat="45.12794" lon="5.50653">
        <ele>1272</ele>
        <time>2013-10-01T21:56:44Z</time>
      </trkpt>
      <trkpt lat="45.1282" lon="5.50603">
        <ele>1276</ele>
        <time>2013-10-01T21:56:55Z</time>
      </trkpt>
      <trkpt lat="45.1289" lon="5.50601">
        <ele>1276</ele>
        <time>2013-10-01T21:57:14Z</time>
      </trkpt>
      <trkpt lat="45.12969" lon="5.50532">
        <ele>1281</ele>
        <time>2013-10-01T21:57:39Z</time>
      </trkpt>
      <trkpt lat="45.13003" lon="5.50448">
        <ele>1292</ele>
        <time>2013-10-01T21:57:57Z</time>
      </trkpt>
      <trkpt lat="45.13025" lon="5.5045">
        <ele>1292</ele>
        <time>2013-10-01T21:58:03Z</time>
      </trkpt>
      <trkpt lat="45.13076" lon="5.50481">
        <ele>1292</ele>
        <time>2013-10-01T21:58:18Z</time>
      </trkpt>
      <trkpt lat="45.13182" lon="5.50487">
        <ele>1301</ele>
        <time>2013-10-01T21:58:46Z</time>
      </trkpt>
      <trkpt lat="45.13182" lon="5.50525">
        <ele>1294</ele>
        <time>2013-10-01T21:58:53Z</time>
      </trkpt>
      <trkpt lat="45.13179" lon="5.50569">
        <ele>1284</ele>
        <time>2013-10-01T21:59:01Z</time>
      </trkpt>
      <trkpt lat="45.13135" lon="5.50612">
        <ele>1275</ele>
        <time>2013-10-01T21:59:16Z</time>
      </trkpt>
      <trkpt lat="45.13102" lon="5.50713">
        <ele>1250</ele>
        <time>2013-10-01T21:59:36Z</time>
      </trkpt>
      <trkpt lat="45.13117" lon="5.50814">
        <ele>1225</ele>
        <time>2013-10-01T21:59:56Z</time>
      </trkpt>
      <trkpt lat="45.13139" lon="5.50876">
        <ele>1211</ele>
        <time>2013-10-01T22:00:09Z</time>
      </trkpt>
      <trkpt lat="45.13181" lon="5.50814">
        <ele>1219</ele>
        <time>2013-10-01T22:00:25Z</time>
      </trkpt>
      <trkpt lat="45.13212" lon="5.50839">
        <ele>1211</ele>
        <time>2013-10-01T22:00:34Z</time>
      </trkpt>
      <trkpt lat="45.13258" lon="5.50883">
        <ele>1205</ele>
        <time>2013-10-01T22:00:49Z</time>
      </trkpt>
      <trkpt lat="45.13292" lon="5.50881">
        <ele>1202</ele>
        <time>2013-10-01T22:00:58Z</time>
      </trkpt>
      <trkpt lat="45.13263" lon="5.50934">
        <ele>1195</ele>
        <time>2013-10-01T22:01:11Z</time>
      </trkpt>
      <trkpt lat="45.13224" lon="5.50958">
        <ele>1193</ele>
        <time>2013-10-01T22:01:22Z</time>
      </trkpt>
      <trkpt lat="45.13254" lon="5.50993">
        <ele>1186</ele>
        <time>2013-10-01T22:01:33Z</time>
      </trkpt>
      <trkpt lat="45.1331" lon="5.50929">
        <ele>1195</ele>
        <time>2013-10-01T22:01:52Z</time>
      </trkpt>
      <trkpt lat="45.13324" lon="5.5101">
        <ele>1181</ele>
        <time>2013-10-01T22:02:08Z</time>
      </trkpt>
      <trkpt lat="45.13357" lon="5.51045">
        <ele>1178</ele>
        <time>2013-10-01T22:02:18Z</time>
      </trkpt>
      <trkpt lat="45.13462" lon="5.51045">
        <ele>1180</ele>
        <time>2013-10-01T22:02:47Z</time>
      </trkpt>
      <trkpt lat="45.13527" lon="5.51063">
        <ele>1175</ele>
        <time>2013-10-01T22:03:04Z</time>
      </trkpt>
      <trkpt lat="45.13616" lon="5.5111">
        <ele>1164</ele>
        <time>2013-10-01T22:03:29Z</time>
      </trkpt>
      <trkpt lat="45.13691" lon="5.5113">
        <ele>1156</ele>
        <time>2013-10-01T22:03:50Z</time>
      </trkpt>
      <trkpt lat="45.13761" lon="5.51089">
        <ele>1148</ele>
        <time>2013-10-01T22:04:10Z</time>
      </trkpt>
      <trkpt lat="45.13785" lon="5.51025">
        <ele>1140</ele>
        <time>2013-10-01T22:04:24Z</time>
      </trkpt>
      <trkpt lat="45.13786" lon="5.50939">
        <ele>1141</ele>
        <time>2013-10-01T22:04:40Z</time>
      </trkpt>
      <trkpt lat="45.13873" lon="5.50974">
        <ele>1123</ele>
        <time>2013-10-01T22:05:04Z</time>
      </trkpt>
      <trkpt lat="45.13936" lon="5.51023">
        <ele>1109</ele>
        <time>2013-10-01T22:05:23Z</time>
      </trkpt>
      <trkpt lat="45.13975" lon="5.51055">
        <ele>1097</ele>
        <time>2013-10-01T22:05:35Z</time>
      </trkpt>
      <trkpt lat="45.14013" lon="5.51012">
        <ele>1107</ele>
        <time>2013-10-01T22:05:48Z</time>
      </trkpt>
      <trkpt lat="45.14039" lon="5.5105">
        <ele>1105</ele>
        <time>2013-10-01T22:05:58Z</time>
      </trkpt>
      <trkpt lat="45.13992" lon="5.51135">
        <ele>1088</ele>
        <time>2013-10-01T22:06:18Z</time>
      </trkpt>
      <trkpt lat="45.13991" lon="5.5123">
        <ele>1081</ele>
        <time>2013-10-01T22:06:36Z</time>
      </trkpt>
      <trkpt lat="45.14021" lon="5.51296">
        <ele>1073</ele>
        <time>2013-10-01T22:06:51Z</time>
      </trkpt>
      <trkpt lat="45.14036" lon="5.51386">
        <ele>1059</ele>
        <time>2013-10-01T22:07:08Z</time>
      </trkpt>
      <trkpt lat="45.14064" lon="5.51452">
        <ele>1043</ele>
        <time>2013-10-01T22:07:23Z</time>
      </trkpt>
      <trkpt lat="45.14134" lon="5.51495">
        <ele>1033</ele>
        <time>2013-10-01T22:07:43Z</time>
      </trkpt>
      <trkpt lat="45.14164" lon="5.51488">
        <ele>1032</ele>
        <time>2013-10-01T22:07:51Z</time>
      </trkpt>
      <trkpt lat="45.14214" lon="5.51516">
        <ele>1027</ele>
        <time>2013-10-01T22:08:06Z</time>
      </trkpt>
      <trkpt lat="45.14303" lon="5.51517">
        <ele>1029</ele>
        <time>2013-10-01T22:08:30Z</time>
      </trkpt>
      <trkpt lat="45.14383" lon="5.515">
        <ele>1030</ele>
        <time>2013-10-01T22:08:51Z</time>
      </trkpt>
      <trkpt lat="45.14441" lon="5.51478">
        <ele>1036</ele>
        <time>2013-10-01T22:09:07Z</time>
      </trkpt>
      <trkpt lat="45.14648" lon="5.51578">
        <ele>1041</ele>
        <time>2013-10-01T22:10:06Z</time>
      </trkpt>
      <trkpt lat="45.14813" lon="5.51741">
        <ele>1053</ele>
        <time>2013-10-01T22:10:59Z</time>
      </trkpt>
      <trkpt lat="45.14842" lon="5.51779">
        <ele>1053</ele>
        <time>2013-10-01T22:11:10Z</time>
      </trkpt>
      <trkpt lat="45.14896" lon="5.51801">
        <ele>1058</ele>
        <time>2013-10-01T22:11:25Z</time>
      </trkpt>
      <trkpt lat="45.14928" lon="5.51767">
        <ele>1066</ele>
        <time>2013-10-01T22:11:35Z</time>
      </trkpt>
      <trkpt lat="45.14964" lon="5.51686">
        <ele>1077</ele>
        <time>2013-10-01T22:11:53Z</time>
      </trkpt>
      <trkpt lat="45.14991" lon="5.51685">
        <ele>1075</ele>
        <time>2013-10-01T22:12:01Z</time>
      </trkpt>
      <trkpt lat="45.15005" lon="5.51734">
        <ele>1077</ele>
        <time>2013-10-01T22:12:10Z</time>
      </trkpt>
      <trkpt lat="45.1503" lon="5.51804">
        <ele>1076</ele>
        <time>2013-10-01T22:12:25Z</time>
      </trkpt>
      <trkpt lat="45.15077" lon="5.51803">
        <ele>1085</ele>
        <time>2013-10-01T22:12:38Z</time>
      </trkpt>
      <trkpt lat="45.15044" lon="5.51853">
        <ele>1072</ele>
        <time>2013-10-01T22:12:51Z</time>
      </trkpt>
      <trkpt lat="45.1502" lon="5.5191">
        <ele>1056</ele>
        <time>2013-10-01T22:13:03Z</time>
      </trkpt>
      <trkpt lat="45.15032" lon="5.51983">
        <ele>1041</ele>
        <time>2013-10-01T22:13:17Z</time>
      </trkpt>
      <trkpt lat="45.15072" lon="5.52061">
        <ele>1027</ele>
        <time>2013-10-01T22:13:35Z</time>
      </trkpt>
      <trkpt lat="45.15122" lon="5.52112">
        <ele>1019</ele>
        <time>2013-10-01T22:13:52Z</time>
      </trkpt>
      <trkpt lat="45.15119" lon="5.52166">
        <ele>1010</ele>
        <time>2013-10-01T22:14:02Z</time>
      </trkpt>
      <trkpt lat="45.15062" lon="5.52264">
        <ele>997</ele>
        <time>2013-10-01T22:14:26Z</time>
      </trkpt>
      <trkpt lat="45.15092" lon="5.52326">
        <ele>996</ele>
        <time>2013-10-01T22:14:40Z</time>
      </trkpt>
      <trkpt lat="45.15016" lon="5.52579">
        <ele>1001</ele>
        <time>2013-10-01T22:15:32Z</time>
      </trkpt>
      <trkpt lat="45.15009" lon="5.52627">
        <ele>1007</ele>
        <time>2013-10-01T22:15:41Z</time>
      </trkpt>
      <trkpt lat="45.15257" lon="5.52695">
        <ele>1008</ele>
        <time>2013-10-01T22:16:48Z</time>
      </trkpt>
      <trkpt lat="45.15583" lon="5.52863">
        <ele>1013</ele>
        <time>2013-10-01T22:18:21Z</time>
      </trkpt>
      <trkpt lat="45.15739" lon="5.52951">
        <ele>1019</ele>
        <time>2013-10-01T22:19:06Z</time>
      </trkpt>
      <trkpt lat="45.15786" lon="5.53066">
        <ele>1022</ele>
        <time>2013-10-01T22:19:31Z</time>
      </trkpt>
      <trkpt lat="45.15936" lon="5.53265">
        <ele>1030</ele>
        <time>2013-10-01T22:20:25Z</time>
      </trkpt>
      <trkpt lat="45.15969" lon="5.53369">
        <ele>1034</ele>
        <time>2013-10-01T22:20:47Z</time>
      </trkpt>
      <trkpt lat="45.15991" lon="5.53436">
        <ele>1037</ele>
        <time>2013-10-01T22:21:01Z</time>
      </trkpt>
      <trkpt lat="45.16046" lon="5.53498">
        <ele>1036</ele>
        <time>2013-10-01T22:21:19Z</time>
      </trkpt>
      <trkpt lat="45.16185" lon="5.53576">
        <ele>1039</ele>
        <time>2013-10-01T22:21:59Z</time>
      </trkpt>
      <trkpt lat="45.16282" lon="5.53578">
        <ele>1043</ele>
        <time>2013-10-01T22:22:25Z</time>
      </trkpt>
      <trkpt lat="45.16321" lon="5.53576">
        <ele>1042</ele>
        <time>2013-10-01T22:22:36Z</time>
      </trkpt>
      <trkpt lat="45.16375" lon="5.53663">
        <ele>1045</ele>
        <time>2013-10-01T22:22:57Z</time>
      </trkpt>
      <trkpt lat="45.16455" lon="5.53671">
        <ele>1040</ele>
        <time>2013-10-01T22:23:19Z</time>
      </trkpt>
      <trkpt lat="45.16503" lon="5.53748">
        <ele>1046</ele>
        <time>2013-10-01T22:23:38Z</time>
      </trkpt>
      <trkpt lat="45.16653" lon="5.53807">
        <ele>1046</ele>
        <time>2013-10-01T22:24:20Z</time>
      </trkpt>
      <trkpt lat="45.16747" lon="5.539">
        <ele>1048</ele>
        <time>2013-10-01T22:24:50Z</time>
      </trkpt>
      <trkpt lat="45.16876" lon="5.53889">
        <ele>1042</ele>
        <time>2013-10-01T22:25:25Z</time>
      </trkpt>
      <trkpt lat="45.17003" lon="5.53941">
        <ele>1040</ele>
        <time>2013-10-01T22:26:00Z</time>
      </trkpt>
      <trkpt lat="45.17206" lon="5.5415">
        <ele>1038</ele>
        <time>2013-10-01T22:27:07Z</time>
      </trkpt>
      <trkpt lat="45.17293" lon="5.54196">
        <ele>1037</ele>
        <time>2013-10-01T22:27:32Z</time>
      </trkpt>
      <trkpt lat="45.17391" lon="5.54212">
        <ele>1037</ele>
        <time>2013-10-01T22:27:58Z</time>
      </trkpt>
      <trkpt lat="45.17435" lon="5.54198">
        <ele>1038</ele>
        <time>2013-10-01T22:28:10Z</time>
      </trkpt>
      <trkpt lat="45.17451" lon="5.54193">
        <ele>1038</ele>
        <time>2013-10-01T22:28:14Z</time>
      </trkpt>
      <trkpt lat="45.17475" lon="5.54223">
        <ele>1038</ele>
        <time>2013-10-01T22:28:23Z</time>
      </trkpt>
      <trkpt lat="45.17508" lon="5.54247">
        <ele>1039</ele>
        <time>2013-10-01T22:28:33Z</time>
      </trkpt>
      <trkpt lat="45.17549" lon="5.54297">
        <ele>1040</ele>
        <time>2013-10-01T22:28:47Z</time>
      </trkpt>
      <trkpt lat="45.17576" lon="5.54375">
        <ele>1040</ele>
        <time>2013-10-01T22:29:04Z</time>
      </trkpt>
      <trkpt lat="45.17622" lon="5.54464">
        <ele>1041</ele>
        <time>2013-10-01T22:29:24Z</time>
      </trkpt>
      <trkpt lat="45.17646" lon="5.54522">
        <ele>1042</ele>
        <time>2013-10-01T22:29:37Z</time>
      </trkpt>
      <trkpt lat="45.17693" lon="5.54678">
        <ele>1045</ele>
        <time>2013-10-01T22:30:09Z</time>
      </trkpt>
      <trkpt lat="45.177" lon="5.54764">
        <ele>1047</ele>
        <time>2013-10-01T22:30:25Z</time>
      </trkpt>
      <trkpt lat="45.17878" lon="5.55128">
        <ele>1053</ele>
        <time>2013-10-01T22:31:49Z</time>
      </trkpt>
      <trkpt lat="45.1796" lon="5.55342">
        <ele>1058</ele>
        <time>2013-10-01T22:32:34Z</time>
      </trkpt>
      <trkpt lat="45.18082" lon="5.55556">
        <ele>1061</ele>
        <time>2013-10-01T22:33:26Z</time>
      </trkpt>
      <trkpt lat="45.18157" lon="5.55691">
        <ele>1062</ele>
        <time>2013-10-01T22:33:58Z</time>
      </trkpt>
      <trkpt lat="45.18232" lon="5.55797">
        <ele>1063</ele>
        <time>2013-10-01T22:34:27Z</time>
      </trkpt>
      <trkpt lat="45.18356" lon="5.55868">
        <ele>1068</ele>
        <time>2013-10-01T22:35:02Z</time>
      </trkpt>
    </trkseg>
  </trk>
</gpx>